sensor_id;sensor_type;location;lat;lon;timestamp;pressure;altitude;pressure_sealevel;temperature;humidity
9460;BME280;4768;42.664;23.240;2023-04-01T00:00:01;170586.13;;;13.70;100.00
9460;BME280;4768;42.664;23.240;2023-04-01T00:02:28;170570.09;;;13.64;100.00
9460;BME280;4768;42.664;23.240;2023-04-01T00:04:55;170560.78;;;13.60;100.00
9460;BME280;4768;42.664;23.240;2023-04-01T00:07:21;170543.44;;;13.54;100.00
9460;BME280;4768;42.664;23.240;2023-04-01T00:09:49;170550.06;;;13.56;100.00
9460;BME280;4768;42.664;23.240;2023-04-01T00:12:16;170546.06;;;13.55;100.00
9460;BME280;4768;42.664;23.240;2023-04-01T00:14:43;170520.72;;;13.46;100.00
9460;BME280;4768;42.664;23.240;2023-04-01T00:17:10;170531.41;;;13.50;100.00
9460;BME280;4768;42.664;23.240;2023-04-01T00:19:37;170516.72;;;13.44;100.00
9460;BME280;4768;42.664;23.240;2023-04-01T00:22:04;170508.72;;;13.41;100.00
9460;BME280;4768;42.664;23.240;2023-04-01T00:24:30;169976.22;;;11.44;100.00
9460;BME280;4768;42.664;23.240;2023-04-01T00:26:58;169806.91;;;10.81;100.00
9460;BME280;4768;42.664;23.240;2023-04-01T00:29:25;169718.97;;;10.48;100.00
9460;BME280;4768;42.664;23.240;2023-04-01T00:31:55;169702.97;;;10.42;100.00
9460;BME280;4768;42.664;23.240;2023-04-01T00:34:22;169675.00;;;10.32;100.00
9460;BME280;4768;42.664;23.240;2023-04-01T00:36:49;123930.19;;;10.19;100.00
9460;BME280;4768;42.664;23.240;2023-04-01T00:39:16;93538.38;;;10.14;100.00
9460;BME280;4768;42.664;23.240;2023-04-01T00:41:43;69685.97;;;9.98;100.00
9460;BME280;4768;42.664;23.240;2023-04-01T00:44:19;44962.94;;;9.69;100.00
9460;BME280;4768;42.664;23.240;2023-04-01T00:46:46;33889.13;;;9.62;100.00
9460;BME280;4768;42.664;23.240;2023-04-01T00:49:14;25267.84;;;9.66;100.00
9460;BME280;4768;42.664;23.240;2023-04-01T00:51:43;17354.00;;;9.64;100.00
9460;BME280;4768;42.664;23.240;2023-04-01T00:54:12;14262.56;;;9.64;100.00
9460;BME280;4768;42.664;23.240;2023-04-01T00:56:42;12889.53;;;9.64;100.00
9460;BME280;4768;42.664;23.240;2023-04-01T00:59:18;12889.50;;;9.64;100.00
9460;BME280;4768;42.664;23.240;2023-04-01T01:01:47;9116.53;;;9.60;100.00
9460;BME280;4768;42.664;23.240;2023-04-01T01:04:24;5006.41;;;9.48;100.00
9460;BME280;4768;42.664;23.240;2023-04-01T01:06:58;4664.13;;;9.48;100.00
9460;BME280;4768;42.664;23.240;2023-04-01T01:09:39;4664.22;;;9.47;100.00
9460;BME280;4768;42.664;23.240;2023-04-01T01:12:11;5006.44;;;9.47;100.00
9460;BME280;4768;42.664;23.240;2023-04-01T01:14:54;9116.66;;;9.68;100.00
9460;BME280;4768;42.664;23.240;2023-04-01T01:17:29;41171.31;;;10.02;100.00
9460;BME280;4768;42.664;23.240;2023-04-01T01:20:30;59222.66;;;9.95;100.00
9460;BME280;4768;42.664;23.240;2023-04-01T01:26:49;56776.63;;;9.83;100.00
9460;BME280;4768;42.664;23.240;2023-04-01T01:29:43;58863.78;;;9.82;100.00
9460;BME280;4768;42.664;23.240;2023-04-01T01:32:23;55023.84;;;9.64;100.00
9460;BME280;4768;42.664;23.240;2023-04-01T01:35:03;66878.44;;;9.83;100.00
9460;BME280;4768;42.664;23.240;2023-04-01T01:37:30;63722.06;;;9.63;100.00
9460;BME280;4768;42.664;23.240;2023-04-01T01:40:00;64076.88;;;9.70;100.00
9460;BME280;4768;42.664;23.240;2023-04-01T01:42:30;79818.66;;;9.90;100.00
9460;BME280;4768;42.664;23.240;2023-04-01T01:44:59;71422.22;;;9.88;100.00
9460;BME280;4768;42.664;23.240;2023-04-01T01:47:28;107987.59;;;10.13;100.00
9460;BME280;4768;42.664;23.240;2023-04-01T01:49:56;138156.97;;;10.21;100.00
9460;BME280;4768;42.664;23.240;2023-04-01T01:52:27;148142.38;;;10.19;100.00
9460;BME280;4768;42.664;23.240;2023-04-01T01:54:56;169704.28;;;10.43;100.00
9460;BME280;4768;42.664;23.240;2023-04-01T01:57:24;169737.63;;;10.55;100.00
9460;BME280;4768;42.664;23.240;2023-04-01T01:59:55;169721.66;;;10.49;100.00
9460;BME280;4768;42.664;23.240;2023-04-01T02:02:25;169694.97;;;10.39;100.00
9460;BME280;4768;42.664;23.240;2023-04-01T02:04:52;169684.31;;;10.35;100.00
9460;BME280;4768;42.664;23.240;2023-04-01T02:07:23;169687.00;;;10.36;100.00
9460;BME280;4768;42.664;23.240;2023-04-01T02:09:53;169664.31;;;10.28;100.00
9460;BME280;4768;42.664;23.240;2023-04-01T02:12:22;169657.69;;;10.25;100.00
9460;BME280;4768;42.664;23.240;2023-04-01T02:14:52;169656.31;;;10.25;100.00
9460;BME280;4768;42.664;23.240;2023-04-01T02:17:22;169671.00;;;10.30;100.00
9460;BME280;4768;42.664;23.240;2023-04-01T02:19:53;169641.72;;;10.19;100.00
9460;BME280;4768;42.664;23.240;2023-04-01T02:22:23;169627.03;;;10.14;100.00
9460;BME280;4768;42.664;23.240;2023-04-01T02:24:53;169621.66;;;10.12;100.00
9460;BME280;4768;42.664;23.240;2023-04-01T02:27:21;169619.03;;;10.11;100.00
9460;BME280;4768;42.664;23.240;2023-04-01T02:29:48;169660.31;;;10.26;100.00
9460;BME280;4768;42.664;23.240;2023-04-01T02:32:16;169652.31;;;10.23;100.00
9460;BME280;4768;42.664;23.240;2023-04-01T02:34:44;169647.03;;;10.21;100.00
9460;BME280;4768;42.664;23.240;2023-04-01T02:37:11;169712.28;;;10.46;100.00
9460;BME280;4768;42.664;23.240;2023-04-01T02:39:39;169690.97;;;10.38;100.00
9460;BME280;4768;42.664;23.240;2023-04-01T02:42:09;169716.28;;;10.47;100.00
9460;BME280;4768;42.664;23.240;2023-04-01T02:44:36;169777.59;;;10.70;100.00
9460;BME280;4768;42.664;23.240;2023-04-01T02:47:03;169808.28;;;10.81;100.00
9460;BME280;4768;42.664;23.240;2023-04-01T02:49:30;169788.22;;;10.74;100.00
9460;BME280;4768;42.664;23.240;2023-04-01T02:51:57;169758.94;;;10.63;100.00
9460;BME280;4768;42.664;23.240;2023-04-01T02:54:23;169793.59;;;10.76;100.00
9460;BME280;4768;42.664;23.240;2023-04-01T02:56:50;169805.59;;;10.80;100.00
9460;BME280;4768;42.664;23.240;2023-04-01T02:59:18;169881.56;;;11.08;100.00
9460;BME280;4768;42.664;23.240;2023-04-01T03:01:45;169960.22;;;11.38;100.00
9460;BME280;4768;42.664;23.240;2023-04-01T03:04:12;169848.25;;;10.96;100.00
9460;BME280;4768;42.664;23.240;2023-04-01T03:06:38;169868.25;;;11.04;100.00
9460;BME280;4768;42.664;23.240;2023-04-01T03:09:05;170082.97;;;11.83;100.00
9460;BME280;4768;42.664;23.240;2023-04-01T03:11:32;170209.72;;;12.30;100.00
9460;BME280;4768;42.664;23.240;2023-04-01T03:13:58;170307.09;;;12.66;100.00
9460;BME280;4768;42.664;23.240;2023-04-01T03:16:27;170277.75;;;12.55;100.00
9460;BME280;4768;42.664;23.240;2023-04-01T03:18:53;170251.06;;;12.46;100.00
9460;BME280;4768;42.664;23.240;2023-04-01T03:21:23;170228.34;;;12.37;100.00
9460;BME280;4768;42.664;23.240;2023-04-01T03:23:50;170141.69;;;12.05;100.00
9460;BME280;4768;42.664;23.240;2023-04-01T03:26:17;170050.97;;;11.71;100.00
9460;BME280;4768;42.664;23.240;2023-04-01T03:28:44;170001.59;;;11.53;100.00
9460;BME280;4768;42.664;23.240;2023-04-01T03:31:11;169954.88;;;11.36;100.00
9460;BME280;4768;42.664;23.240;2023-04-01T03:33:40;169925.56;;;11.25;100.00
9460;BME280;4768;42.664;23.240;2023-04-01T03:36:08;169878.88;;;11.07;100.00
9460;BME280;4768;42.664;23.240;2023-04-01T03:38:36;169833.56;;;10.91;100.00
9460;BME280;4768;42.664;23.240;2023-04-01T03:41:03;169812.28;;;10.83;100.00
9460;BME280;4768;42.664;23.240;2023-04-01T03:43:30;169784.25;;;10.72;100.00
9460;BME280;4768;42.664;23.240;2023-04-01T03:45:57;159712.00;;;10.66;100.00
9460;BME280;4768;42.664;23.240;2023-04-01T03:48:24;131462.72;;;10.55;100.00
9460;BME280;4768;42.664;23.240;2023-04-01T03:50:53;103454.31;;;10.48;100.00
9460;BME280;4768;42.664;23.240;2023-04-01T03:53:19;79878.34;;;10.40;100.00
9460;BME280;4768;42.664;23.240;2023-04-01T03:55:46;57514.56;;;10.35;100.00
9460;BME280;4768;42.664;23.240;2023-04-01T03:58:13;48815.31;;;10.26;100.00
9460;BME280;4768;42.664;23.240;2023-04-01T04:00:40;9460.25;;;9.99;100.00
9460;BME280;4768;42.664;23.240;2023-04-01T04:03:07;9460.31;;;10.02;100.00
9460;BME280;4768;42.664;23.240;2023-04-01T04:05:33;9460.31;;;10.01;100.00
9460;BME280;4768;42.664;23.240;2023-04-01T04:08:02;4661.72;;;9.93;100.00
9460;BME280;4768;42.664;23.240;2023-04-01T04:10:29;15984.66;;;10.03;100.00
9460;BME280;4768;42.664;23.240;2023-04-01T04:12:55;18046.66;;;9.97;100.00
9460;BME280;4768;42.664;23.240;2023-04-01T04:15:23;14608.06;;;9.84;100.00
9460;BME280;4768;42.664;23.240;2023-04-01T04:17:49;8431.13;;;9.71;100.00
9460;BME280;4768;42.664;23.240;2023-04-01T04:20:16;14608.38;;;9.87;100.00
9460;BME280;4768;42.664;23.240;2023-04-01T04:22:43;31488.94;;;10.04;100.00
9460;BME280;4768;42.664;23.240;2023-04-01T04:25:11;73580.31;;;10.45;100.00
9460;BME280;4768;42.664;23.240;2023-04-01T04:27:38;160074.50;;;10.67;100.00
9460;BME280;4768;42.664;23.240;2023-04-01T04:30:06;169773.63;;;10.68;100.00
9460;BME280;4768;42.664;23.240;2023-04-01T04:32:33;169764.25;;;10.65;100.00
9460;BME280;4768;42.664;23.240;2023-04-01T04:35:01;169824.28;;;10.87;100.00
9460;BME280;4768;42.664;23.240;2023-04-01T04:37:27;169832.25;;;10.90;100.00
9460;BME280;4768;42.664;23.240;2023-04-01T04:39:54;169740.25;;;10.56;100.00
9460;BME280;4768;42.664;23.240;2023-04-01T04:42:22;65854.13;;;10.06;100.00
9460;BME280;4768;42.664;23.240;2023-04-01T04:44:49;20797.28;;;9.88;100.00
9460;BME280;4768;42.664;23.240;2023-04-01T04:47:16;8774.06;;;9.83;100.00
9460;BME280;4768;42.664;23.240;2023-04-01T04:49:42;-6956.69;;;9.69;100.00
9460;BME280;4768;42.664;23.240;2023-04-01T04:52:09;-9685.19;;;9.64;100.00
9460;BME280;4768;42.664;23.240;2023-04-01T04:54:36;-9682.22;;;9.54;100.00
9460;BME280;4768;42.664;23.240;2023-04-01T04:57:03;-9679.09;;;9.43;100.00
9460;BME280;4768;42.664;23.240;2023-04-01T04:59:31;-9679.09;;;9.43;100.00
9460;BME280;4768;42.664;23.240;2023-04-01T05:01:58;-9676.97;;;9.35;100.00
9460;BME280;4768;42.664;23.240;2023-04-01T05:04:25;-9671.00;;;9.14;100.00
9460;BME280;4768;42.664;23.240;2023-04-01T05:06:51;-9672.56;;;9.20;100.00
9460;BME280;4768;42.664;23.240;2023-04-01T05:09:18;-9669.31;;;9.09;100.00
9460;BME280;4768;42.664;23.240;2023-04-01T05:11:45;-9669.03;;;9.08;100.00
9460;BME280;4768;42.664;23.240;2023-04-01T05:14:13;-9667.91;;;9.04;100.00
9460;BME280;4768;42.664;23.240;2023-04-01T05:16:41;-9667.19;;;9.01;100.00
9460;BME280;4768;42.664;23.240;2023-04-01T05:19:08;-9668.31;;;9.05;100.00
9460;BME280;4768;42.664;23.240;2023-04-01T05:21:34;-9660.25;;;8.77;100.00
9460;BME280;4768;42.664;23.240;2023-04-01T05:24:01;-9662.09;;;8.83;100.00
9460;BME280;4768;42.664;23.240;2023-04-01T05:26:28;-9663.06;;;8.87;100.00
9460;BME280;4768;42.664;23.240;2023-04-01T05:28:55;-9665.06;;;8.94;100.00
9460;BME280;4768;42.664;23.240;2023-04-01T05:31:21;-9679.94;;;9.46;100.00
9460;BME280;4768;42.664;23.240;2023-04-01T05:33:50;-9688.75;;;9.76;100.00
9460;BME280;4768;42.664;23.240;2023-04-01T05:36:17;-9696.41;;;10.03;100.00
9460;BME280;4768;42.664;23.240;2023-04-01T05:38:44;-9707.19;;;10.41;100.00
9460;BME280;4768;42.664;23.240;2023-04-01T05:41:12;-9711.88;;;10.57;100.00
9460;BME280;4768;42.664;23.240;2023-04-01T05:43:40;541.28;;;11.02;100.00
9460;BME280;4768;42.664;23.240;2023-04-01T05:46:07;36731.06;;;11.28;100.00
9460;BME280;4768;42.664;23.240;2023-04-01T05:48:35;12210.44;;;10.69;100.00
9460;BME280;4768;42.664;23.240;2023-04-01T05:51:03;20128.88;;;10.88;100.00
9460;BME280;4768;42.664;23.240;2023-04-01T05:53:30;39866.41;;;11.56;100.00
9460;BME280;4768;42.664;23.240;2023-04-01T05:56:01;73735.63;;;11.89;100.00
9460;BME280;4768;42.664;23.240;2023-04-01T05:58:29;97595.94;;;11.40;100.00
9460;BME280;4768;42.664;23.240;2023-04-01T06:01:01;113896.75;;;11.57;100.00
9460;BME280;4768;42.664;23.240;2023-04-01T06:03:28;140095.91;;;10.93;100.00
9460;BME280;4768;42.664;23.240;2023-04-01T06:05:55;106703.19;;;10.91;100.00
9460;BME280;4768;42.664;23.240;2023-04-01T06:08:24;79956.19;;;11.06;100.00
9460;BME280;4768;42.664;23.240;2023-04-01T06:10:58;99968.63;;;10.75;100.00
9460;BME280;4768;42.664;23.240;2023-04-01T06:13:41;87657.88;;;10.86;100.00
9460;BME280;4768;42.664;23.240;2023-04-01T06:16:21;88716.66;;;10.89;100.00
9460;BME280;4768;42.664;23.240;2023-04-01T06:19:11;89074.31;;;10.93;100.00
9460;BME280;4768;42.664;23.240;2023-04-01T06:22:32;130146.78;;;11.07;100.00
9460;BME280;4768;42.664;23.240;2023-04-01T06:25:31;149074.69;;;11.12;100.00
9460;BME280;4768;42.664;23.240;2023-04-01T06:28:16;121289.88;;;11.24;100.00
9460;BME280;4768;42.664;23.240;2023-04-01T06:30:57;125568.19;;;11.31;100.00
9460;BME280;4768;42.664;23.240;2023-04-01T06:33:40;169886.88;;;11.10;100.00
9460;BME280;4768;42.664;23.240;2023-04-01T06:42:39;169918.88;;;11.22;100.00
9460;BME280;4768;42.664;23.240;2023-04-01T06:45:19;169946.88;;;11.33;100.00
9460;BME280;4768;42.664;23.240;2023-04-01T06:48:03;169948.22;;;11.33;100.00
9460;BME280;4768;42.664;23.240;2023-04-01T06:50:41;169984.22;;;11.47;100.00
9460;BME280;4768;42.664;23.240;2023-04-01T06:53:17;169982.91;;;11.46;100.00
9460;BME280;4768;42.664;23.240;2023-04-01T06:55:47;169925.56;;;11.25;100.00
9460;BME280;4768;42.664;23.240;2023-04-01T06:58:21;170013.59;;;11.57;100.00
9460;BME280;4768;42.664;23.240;2023-04-01T07:00:51;170001.59;;;11.53;100.00
9460;BME280;4768;42.664;23.240;2023-04-01T07:03:23;170026.97;;;11.62;100.00
9460;BME280;4768;42.664;23.240;2023-04-01T07:05:56;170086.97;;;11.85;100.00
9460;BME280;4768;42.664;23.240;2023-04-01T07:08:27;170073.59;;;11.80;100.00
9460;BME280;4768;42.664;23.240;2023-04-01T07:10:58;170116.31;;;11.96;100.00
9460;BME280;4768;42.664;23.240;2023-04-01T07:13:32;170098.97;;;11.89;100.00
9460;BME280;4768;42.664;23.240;2023-04-01T07:16:08;170046.97;;;11.70;100.00
9460;BME280;4768;42.664;23.240;2023-04-01T07:18:42;170022.97;;;11.61;100.00
9460;BME280;4768;42.664;23.240;2023-04-01T07:21:22;169993.59;;;11.50;100.00
9460;BME280;4768;42.664;23.240;2023-04-01T07:23:50;169972.22;;;11.42;100.00
9460;BME280;4768;42.664;23.240;2023-04-01T07:26:21;169984.22;;;11.47;100.00
9460;BME280;4768;42.664;23.240;2023-04-01T07:28:51;170203.03;;;12.28;100.00
9460;BME280;4768;42.664;23.240;2023-04-01T07:31:35;170211.03;;;12.31;100.00
9460;BME280;4768;42.664;23.240;2023-04-01T07:34:08;170212.34;;;12.31;100.00
9460;BME280;4768;42.664;23.240;2023-04-01T07:36:39;170168.31;;;12.15;100.00
9460;BME280;4768;42.664;23.240;2023-04-01T07:39:17;170159.00;;;12.11;100.00
9460;BME280;4768;42.664;23.240;2023-04-01T07:41:58;170153.69;;;12.09;100.00
9460;BME280;4768;42.664;23.240;2023-04-01T07:44:35;170136.31;;;12.03;100.00
9460;BME280;4768;42.664;23.240;2023-04-01T07:47:20;170164.31;;;12.13;100.00
9460;BME280;4768;42.664;23.240;2023-04-01T07:50:02;170164.31;;;12.13;100.00
9460;BME280;4768;42.664;23.240;2023-04-01T07:52:35;170106.97;;;11.92;100.00
9460;BME280;4768;42.664;23.240;2023-04-01T07:55:09;170053.59;;;11.72;100.00
9460;BME280;4768;42.664;23.240;2023-04-01T07:57:44;170042.97;;;11.68;100.00
9460;BME280;4768;42.664;23.240;2023-04-01T08:00:19;170065.59;;;11.77;100.00
9460;BME280;4768;42.664;23.240;2023-04-01T08:03:05;170096.28;;;11.88;100.00
9460;BME280;4768;42.664;23.240;2023-04-01T08:05:40;170109.63;;;11.93;100.00
9460;BME280;4768;42.664;23.240;2023-04-01T08:08:18;170144.31;;;12.06;100.00
9460;BME280;4768;42.664;23.240;2023-04-01T08:10:52;170173.69;;;12.17;100.00
9460;BME280;4768;42.664;23.240;2023-04-01T08:13:29;170187.00;;;12.22;100.00
9460;BME280;4768;42.664;23.240;2023-04-01T08:16:08;170195.00;;;12.25;100.00
9460;BME280;4768;42.664;23.240;2023-04-01T08:18:44;170203.03;;;12.28;100.00
9460;BME280;4768;42.664;23.240;2023-04-01T08:21:17;170179.00;;;12.19;100.00
9460;BME280;4768;42.664;23.240;2023-04-01T08:23:48;170211.03;;;12.31;100.00
9460;BME280;4768;42.664;23.240;2023-04-01T08:26:22;170303.09;;;12.65;100.00
9460;BME280;4768;42.664;23.240;2023-04-01T08:28:59;170313.78;;;12.69;100.00
9460;BME280;4768;42.664;23.240;2023-04-01T08:31:32;170397.91;;;13.00;100.00
9460;BME280;4768;42.664;23.240;2023-04-01T08:34:00;170417.91;;;13.07;100.00
9460;BME280;4768;42.664;23.240;2023-04-01T08:36:33;170335.09;;;12.77;100.00
9460;BME280;4768;42.664;23.240;2023-04-01T08:39:05;170611.53;;;13.79;100.00
9460;BME280;4768;42.664;23.240;2023-04-01T08:44:41;170626.19;;;13.85;100.00
9460;BME280;4768;42.664;23.240;2023-04-01T08:47:54;170502.00;;;13.39;100.00
9460;BME280;4768;42.664;23.240;2023-04-01T08:50:44;170706.41;;;14.14;100.00
9460;BME280;4768;42.664;23.240;2023-04-01T08:53:21;170626.19;;;13.85;100.00
9460;BME280;4768;42.664;23.240;2023-04-01T08:56:06;170773.16;;;14.39;100.00
9460;BME280;4768;42.664;23.240;2023-04-01T08:58:58;170976.28;;;15.14;100.00
9460;BME280;4768;42.664;23.240;2023-04-01T09:01:47;170898.78;;;14.86;100.00
9460;BME280;4768;42.664;23.240;2023-04-01T09:04:41;171091.31;;;15.57;100.00
9460;BME280;4768;42.664;23.240;2023-04-01T09:07:26;171179.59;;;15.90;91.59
9460;BME280;4768;42.664;23.240;2023-04-01T09:10:19;171213.00;;;16.02;86.58
9460;BME280;4768;42.664;23.240;2023-04-01T09:13:10;171223.72;;;16.06;85.36
9460;BME280;4768;42.664;23.240;2023-04-01T09:16:07;171241.09;;;16.12;85.54
9460;BME280;4768;42.664;23.240;2023-04-01T09:18:50;171225.03;;;16.06;87.51
9460;BME280;4768;42.664;23.240;2023-04-01T09:21:57;171219.72;;;16.04;84.16
9460;BME280;4768;42.664;23.240;2023-04-01T09:24:44;171223.72;;;16.06;82.28
9460;BME280;4768;42.664;23.240;2023-04-01T09:27:34;171225.03;;;16.06;80.71
9460;BME280;4768;42.664;23.240;2023-04-01T09:30:38;171242.41;;;16.13;81.96
9460;BME280;4768;42.664;23.240;2023-04-01T09:36:23;171196.97;;;15.96;83.33
9460;BME280;4768;42.664;23.240;2023-04-01T09:38:58;171180.91;;;15.90;84.61
9460;BME280;4768;42.664;23.240;2023-04-01T09:41:30;171231.75;;;16.09;86.60
9460;BME280;4768;42.664;23.240;2023-04-01T09:44:01;171265.16;;;16.21;86.37
9460;BME280;4768;42.664;23.240;2023-04-01T09:46:37;171322.69;;;16.43;86.76
9460;BME280;4768;42.664;23.240;2023-04-01T09:49:41;171353.47;;;16.54;84.90
9460;BME280;4768;42.664;23.240;2023-04-01T09:52:20;171395.00;;;16.69;85.57
9460;BME280;4768;42.664;23.240;2023-04-01T09:55:01;171345.47;;;16.51;86.43
9460;BME280;4768;42.664;23.240;2023-04-01T09:57:56;171308.03;;;16.37;85.55
9460;BME280;4768;42.664;23.240;2023-04-01T10:00:44;171281.25;;;16.27;86.28
9460;BME280;4768;42.664;23.240;2023-04-01T10:03:37;171309.34;;;16.38;86.53
9460;BME280;4768;42.664;23.240;2023-04-01T10:09:52;171305.34;;;16.36;86.04
9460;BME280;4768;42.664;23.240;2023-04-01T10:12:57;171345.47;;;16.51;83.56
9460;BME280;4768;42.664;23.240;2023-04-01T10:15:52;171360.19;;;16.56;79.73
9460;BME280;4768;42.664;23.240;2023-04-01T10:19:06;171461.84;;;16.94;78.53
9460;BME280;4768;42.664;23.240;2023-04-01T10:25:10;171428.41;;;16.82;76.55
9460;BME280;4768;42.664;23.240;2023-04-01T10:33:54;171443.16;;;16.87;78.04
9460;BME280;4768;42.664;23.240;2023-04-01T10:36:43;171479.28;;;17.00;76.15
9460;BME280;4768;42.664;23.240;2023-04-01T10:39:33;171481.91;;;17.01;77.02
9460;BME280;4768;42.664;23.240;2023-04-01T10:45:52;171461.84;;;16.94;78.89
9460;BME280;4768;42.664;23.240;2023-04-01T10:48:47;171464.53;;;16.95;78.08
9460;BME280;4768;42.664;23.240;2023-04-01T10:51:36;171421.72;;;16.79;76.63
9460;BME280;4768;42.664;23.240;2023-04-01T10:54:25;171461.84;;;16.94;75.88
9460;BME280;4768;42.664;23.240;2023-04-01T10:57:02;171464.53;;;16.95;76.44
9460;BME280;4768;42.664;23.240;2023-04-01T11:09:26;171428.41;;;16.82;78.01
9460;BME280;4768;42.664;23.240;2023-04-01T11:12:09;171352.16;;;16.53;77.66
9460;BME280;4768;42.664;23.240;2023-04-01T11:21:14;171354.84;;;16.54;81.32
9460;BME280;4768;42.664;23.240;2023-04-01T11:24:03;171325.38;;;16.44;84.07
9460;BME280;4768;42.664;23.240;2023-04-01T11:26:47;171226.34;;;16.07;95.27
9460;BME280;4768;42.664;23.240;2023-04-01T11:29:58;171015.13;;;15.29;100.00
9460;BME280;4768;42.664;23.240;2023-04-01T11:32:38;170920.16;;;14.94;100.00
9460;BME280;4768;42.664;23.240;2023-04-01T11:35:23;170884.06;;;14.80;100.00
9460;BME280;4768;42.664;23.240;2023-04-01T11:37:55;170643.56;;;13.91;100.00
9460;BME280;4768;42.664;23.240;2023-04-01T11:40:30;170468.66;;;13.26;100.00
9460;BME280;4768;42.664;23.240;2023-04-01T11:43:06;114420.72;;;12.54;100.00
9460;BME280;4768;42.664;23.240;2023-04-01T11:45:40;7744.91;;;11.86;100.00
9460;BME280;4768;42.664;23.240;2023-04-01T11:48:23;-9722.66;;;10.95;100.00
9460;BME280;4768;42.664;23.240;2023-04-01T11:53:47;-9704.63;;;10.32;100.00
9460;BME280;4768;42.664;23.240;2023-04-01T11:56:38;-9700.53;;;10.17;100.00
9460;BME280;4768;42.664;23.240;2023-04-01T12:02:29;-9684.78;;;9.63;100.00
9460;BME280;4768;42.664;23.240;2023-04-01T12:05:22;-9680.78;;;9.49;100.00
9460;BME280;4768;42.664;23.240;2023-04-01T12:08:09;-9679.94;;;9.46;100.00
9460;BME280;4768;42.664;23.240;2023-04-01T12:10:40;-9684.63;;;9.62;100.00
9460;BME280;4768;42.664;23.240;2023-04-01T12:13:20;-9690.88;;;9.84;100.00
9460;BME280;4768;42.664;23.240;2023-04-01T12:16:03;-9692.00;;;9.88;100.00
9460;BME280;4768;42.664;23.240;2023-04-01T12:18:41;-9703.06;;;10.26;100.00
9460;BME280;4768;42.664;23.240;2023-04-01T12:21:18;-9703.50;;;10.28;100.00
9460;BME280;4768;42.664;23.240;2023-04-01T12:24:12;-9707.19;;;10.41;100.00
9460;BME280;4768;42.664;23.240;2023-04-01T12:27:04;-9705.34;;;10.34;100.00
9460;BME280;4768;42.664;23.240;2023-04-01T12:29:50;-9696.41;;;10.03;100.00
9460;BME280;4768;42.664;23.240;2023-04-01T12:32:26;-9696.25;;;10.03;100.00
9460;BME280;4768;42.664;23.240;2023-04-01T12:35:10;-9693.72;;;9.94;100.00
9460;BME280;4768;42.664;23.240;2023-04-01T12:37:48;-9690.72;;;9.83;100.00
9460;BME280;4768;42.664;23.240;2023-04-01T12:40:24;-9690.59;;;9.83;100.00
9460;BME280;4768;42.664;23.240;2023-04-01T12:43:17;-9687.59;;;9.72;100.00
9460;BME280;4768;42.664;23.240;2023-04-01T12:45:50;-9688.03;;;9.74;100.00
9460;BME280;4768;42.664;23.240;2023-04-01T12:51:45;-9687.03;;;9.70;100.00
9460;BME280;4768;42.664;23.240;2023-04-01T12:54:57;-9686.91;;;9.70;100.00
9460;BME280;4768;42.664;23.240;2023-04-01T12:58:06;-9685.63;;;9.65;100.00
9460;BME280;4768;42.664;23.240;2023-04-01T13:00:48;-9684.47;;;9.62;100.00
9460;BME280;4768;42.664;23.240;2023-04-01T13:03:44;-9685.63;;;9.65;100.00
9460;BME280;4768;42.664;23.240;2023-04-01T13:06:32;-9685.75;;;9.66;100.00
9460;BME280;4768;42.664;23.240;2023-04-01T13:09:16;-9689.31;;;9.78;100.00
9460;BME280;4768;42.664;23.240;2023-04-01T13:11:59;-9690.72;;;9.83;100.00
9460;BME280;4768;42.664;23.240;2023-04-01T13:14:58;-9695.28;;;9.99;100.00
9460;BME280;4768;42.664;23.240;2023-04-01T13:17:34;-9697.81;;;10.08;100.00
9460;BME280;4768;42.664;23.240;2023-04-01T13:20:11;-9700.66;;;10.18;100.00
9460;BME280;4768;42.664;23.240;2023-04-01T13:22:51;-9706.47;;;10.38;100.00
9460;BME280;4768;42.664;23.240;2023-04-01T13:25:27;-9707.34;;;10.41;100.00
9460;BME280;4768;42.664;23.240;2023-04-01T13:28:01;-9712.00;;;10.58;100.00
9460;BME280;4768;42.664;23.240;2023-04-01T13:30:37;-9722.38;;;10.94;100.00
9460;BME280;4768;42.664;23.240;2023-04-01T13:33:14;-9728.06;;;11.13;100.00
9460;BME280;4768;42.664;23.240;2023-04-01T13:35:46;-9731.75;;;11.26;100.00
9460;BME280;4768;42.664;23.240;2023-04-01T13:38:41;-9725.78;;;11.06;100.00
9460;BME280;4768;42.664;23.240;2023-04-01T13:41:21;-9729.06;;;11.17;100.00
9460;BME280;4768;42.664;23.240;2023-04-01T13:43:58;-9736.00;;;11.41;100.00
9460;BME280;4768;42.664;23.240;2023-04-01T13:46:39;-9744.81;;;11.72;100.00
9460;BME280;4768;42.664;23.240;2023-04-01T13:49:47;-9756.19;;;12.11;100.00
9460;BME280;4768;42.664;23.240;2023-04-01T13:52:41;-9760.72;;;12.27;100.00
9460;BME280;4768;42.664;23.240;2023-04-01T13:58:23;-9767.69;;;12.52;100.00
9460;BME280;4768;42.664;23.240;2023-04-01T14:01:05;-9769.97;;;12.59;100.00
9460;BME280;4768;42.664;23.240;2023-04-01T14:03:54;-9778.66;;;12.90;100.00
9460;BME280;4768;42.664;23.240;2023-04-01T14:06:33;-9785.31;;;13.13;100.00
9460;BME280;4768;42.664;23.240;2023-04-01T14:09:33;-9789.31;;;13.27;100.00
9460;BME280;4768;42.664;23.240;2023-04-01T14:12:06;-9783.63;;;13.07;100.00
9460;BME280;4768;42.664;23.240;2023-04-01T14:14:52;-9787.19;;;13.19;100.00
9460;BME280;4768;42.664;23.240;2023-04-01T14:17:34;-9787.47;;;13.20;100.00
9460;BME280;4768;42.664;23.240;2023-04-01T14:20:25;-9795.44;;;13.48;100.00
9460;BME280;4768;42.664;23.240;2023-04-01T14:23:14;-9793.16;;;13.40;100.00
9460;BME280;4768;42.664;23.240;2023-04-01T14:26:09;-9445.00;;;13.29;100.00
9460;BME280;4768;42.664;23.240;2023-04-01T14:28:42;-9793.28;;;13.41;100.00
9460;BME280;4768;42.664;23.240;2023-04-01T14:31:34;-2241.13;;;13.57;100.00
9460;BME280;4768;42.664;23.240;2023-04-01T14:34:15;6020.09;;;13.69;100.00
9460;BME280;4768;42.664;23.240;2023-04-01T14:37:03;14650.50;;;13.76;100.00
9460;BME280;4768;42.664;23.240;2023-04-01T14:43:10;55696.09;;;13.82;100.00
9460;BME280;4768;42.664;23.240;2023-04-01T14:45:55;94784.41;;;13.95;100.00
9460;BME280;4768;42.664;23.240;2023-04-01T14:48:30;111478.59;;;14.03;100.00